Buxton, United Kingdom
Current Conditions -  °F | °C
As of 10:50 PM on Wednesday 22 Oct 2014 (Local Time) from EGCC Reporting Station
Clear Clear  
Wind Chill: 50°   Ceiling: Unl
Heat Index: 50°   Visibility: 6mi
Dew Point: 48°   Wind: 6mph
Humidity: 94%   Direction: 200°SSW
Pressure: 30.12"   Gusts: NA
Location:  53.26°N, 1.91°W
Report Text: EGCC 222150Z 20005KT CAVOK 10/09 Q1020 NOSIG
Loading
Personal Weather Stations






























Interactive Weather Map
Tropical Storm Tracking
New forecast layout! Learn more

10-Day Weather Forecast

Advertisements
Track Severe Weather on mobile